Time;durP1;ratioP1;P1;durP2;ratioP2;P2;SDS_P1;SDS_P2;PMS_P1;PMS_P2;Temp;Humidity;BMP_temperature;BMP_pressure;BME280_temperature;BME280_humidity;BME280_pressure;Samples;Min_cycle;Max_cycle;Signal;HPM_P1;HPM_P2
2021/01/13 00:01:12;;;;;;;9.27;7.87;;;1.90;99.90;;;;;;5035965;28;20642;-47
2021/01/13 00:03:38;;;;;;;9.23;7.57;;;1.80;99.90;;;;;;5033535;28;20210;-48
2021/01/13 00:06:03;;;;;;;9.83;8.00;;;1.70;99.90;;;;;;5031721;28;20239;-48
2021/01/13 00:08:29;;;;;;;8.57;7.40;;;1.70;99.90;;;;;;5034925;28;20218;-47
2021/01/13 00:10:54;;;;;;;8.43;7.57;;;1.60;99.90;;;;;;5033226;28;20407;-47
2021/01/13 00:13:20;;;;;;;8.43;7.53;;;1.70;99.90;;;;;;5032442;28;20628;-46
2021/01/13 00:15:45;;;;;;;8.60;7.70;;;1.60;99.90;;;;;;5034071;28;20536;-50
2021/01/13 00:18:11;;;;;;;8.67;7.60;;;1.70;99.90;;;;;;5032703;28;20672;-47
2021/01/13 00:20:37;;;;;;;8.83;7.93;;;1.70;99.90;;;;;;5016153;28;20568;-52
2021/01/13 00:23:02;;;;;;;8.77;7.87;;;1.80;99.90;;;;;;5035142;28;20168;-47
2021/01/13 00:25:28;;;;;;;9.00;8.07;;;1.70;99.90;;;;;;5032185;28;20683;-48
2021/01/13 00:27:54;;;;;;;9.27;8.37;;;1.70;99.90;;;;;;5026097;28;20211;-46
2021/01/13 00:30:20;;;;;;;8.93;8.03;;;1.70;99.90;;;;;;5035203;28;20195;-48
2021/01/13 00:32:45;;;;;;;9.13;7.87;;;1.70;99.90;;;;;;5033766;28;20174;-47
2021/01/13 00:35:12;;;;;;;9.83;8.83;;;1.60;99.90;;;;;;5034954;28;20489;-48
2021/01/13 00:37:39;;;;;;;9.57;8.57;;;1.70;99.90;;;;;;5035278;28;20589;-53
2021/01/13 00:40:06;;;;;;;10.13;9.13;;;1.70;99.90;;;;;;5036242;28;20410;-50
2021/01/13 00:42:32;;;;;;;9.53;8.07;;;1.60;99.90;;;;;;5035555;28;20430;-46
2021/01/13 00:44:57;;;;;;;8.77;7.83;;;1.60;99.90;;;;;;5021614;28;20454;-46
2021/01/13 00:47:23;;;;;;;9.03;8.13;;;1.50;99.90;;;;;;5037435;28;20176;-50
2021/01/13 00:49:48;;;;;;;8.80;7.87;;;1.50;99.90;;;;;;5034721;28;20245;-48
2021/01/13 00:52:14;;;;;;;8.40;7.50;;;1.50;99.90;;;;;;5036022;28;20187;-46
2021/01/13 00:54:39;;;;;;;9.43;7.23;;;1.50;99.90;;;;;;5036630;28;20184;-52
2021/01/13 00:57:06;;;;;;;9.20;7.47;;;1.50;99.90;;;;;;5036674;28;20532;-46
2021/01/13 00:59:32;;;;;;;8.40;7.40;;;1.50;99.90;;;;;;5039132;28;20215;-48
2021/01/13 01:01:57;;;;;;;8.73;7.83;;;1.50;99.90;;;;;;5035350;28;20430;-47
2021/01/13 01:04:23;;;;;;;7.47;6.60;;;1.60;99.90;;;;;;5036839;28;20560;-50
2021/01/13 01:06:49;;;;;;;7.40;6.60;;;1.50;99.90;;;;;;5036262;28;20624;-50
2021/01/13 01:09:15;;;;;;;8.40;6.60;;;1.60;99.90;;;;;;5034348;28;20224;-50
2021/01/13 01:11:41;;;;;;;7.80;6.00;;;1.60;99.90;;;;;;5036468;28;20172;-49
2021/01/13 01:14:08;;;;;;;6.63;5.93;;;1.70;99.90;;;;;;5037366;28;20411;-47
2021/01/13 01:16:36;;;;;;;7.10;6.30;;;1.70;99.90;;;;;;5036716;28;20944;-46
2021/01/13 01:19:03;;;;;;;6.87;5.80;;;1.70;99.90;;;;;;5035031;28;20454;-48
2021/01/13 01:21:29;;;;;;;8.50;5.73;;;1.60;99.90;;;;;;5036954;28;20421;-48
2021/01/13 01:23:55;;;;;;;8.83;6.27;;;1.60;99.90;;;;;;5037124;28;20516;-52
2021/01/13 01:26:21;;;;;;;8.27;6.60;;;1.60;99.90;;;;;;5038454;28;20407;-48
2021/01/13 01:28:47;;;;;;;9.37;6.83;;;1.50;99.90;;;;;;5038333;28;20210;-53
2021/01/13 01:31:12;;;;;;;8.37;6.60;;;1.50;99.90;;;;;;5021296;28;20168;-46
2021/01/13 01:33:38;;;;;;;8.43;6.73;;;1.60;99.90;;;;;;5036774;28;20639;-48
2021/01/13 01:36:04;;;;;;;7.77;6.10;;;1.70;99.90;;;;;;5036201;28;20200;-48
2021/01/13 01:38:30;;;;;;;8.17;7.27;;;1.70;99.90;;;;;;5036455;28;20206;-47
2021/01/13 01:41:04;;;;;;;8.23;6.93;;;1.70;99.90;;;;;;5037497;28;20667;-49
2021/01/13 01:43:29;;;;;;;7.77;6.70;;;1.80;99.90;;;;;;5034482;28;20586;-51
2021/01/13 01:45:55;;;;;;;7.43;6.30;;;1.80;99.90;;;;;;5036866;28;20894;-46
2021/01/13 01:48:26;;;;;;;7.97;6.60;;;1.80;99.90;;;;;;5035988;28;20204;-49
2021/01/13 01:50:57;;;;;;;7.47;6.30;;;1.90;99.90;;;;;;5037164;28;20168;-48
2021/01/13 01:53:28;;;;;;;7.73;6.47;;;1.90;99.90;;;;;;5037799;28;20468;-50
2021/01/13 01:56:20;;;;;;;8.00;6.47;;;1.90;99.90;;;;;;5036889;28;20406;-48
2021/01/13 01:58:48;;;;;;;7.37;6.47;;;1.90;99.90;;;;;;5034539;28;20442;-48
2021/01/13 02:01:18;;;;;;;7.43;6.43;;;1.90;99.90;;;;;;5038418;28;20445;-48
2021/01/13 02:03:49;;;;;;;6.60;5.90;;;1.90;99.90;;;;;;5037713;28;20207;-47
2021/01/13 02:06:17;;;;;;;7.50;6.40;;;1.90;99.90;;;;;;5035740;28;20480;-48
2021/01/13 02:08:44;;;;;;;7.80;6.60;;;1.80;99.90;;;;;;5036334;28;20927;-47
2021/01/13 02:11:23;;;;;;;6.90;6.17;;;1.80;99.90;;;;;;5036189;28;20407;-47
2021/01/13 02:13:48;;;;;;;9.33;5.63;;;1.80;99.90;;;;;;5033887;28;20473;-50
2021/01/13 02:16:16;;;;;;;7.43;6.03;;;1.80;99.90;;;;;;5037067;28;20426;-50
2021/01/13 02:18:44;;;;;;;5.90;5.30;;;1.80;99.90;;;;;;5033045;28;20219;-52
2021/01/13 02:21:17;;;;;;;6.90;5.60;;;1.70;99.90;;;;;;5036117;28;20418;-46
2021/01/13 02:24:09;;;;;;;6.30;5.47;;;1.70;99.90;;;;;;5036467;28;20958;-46
2021/01/13 02:27:11;;;;;;;7.70;5.60;;;1.70;99.90;;;;;;5006514;28;20550;-47
2021/01/13 02:29:49;;;;;;;7.27;5.17;;;1.60;99.90;;;;;;5017100;28;20437;-46
2021/01/13 02:32:34;;;;;;;6.73;5.77;;;1.50;99.90;;;;;;5015552;28;20399;-52
2021/01/13 02:35:13;;;;;;;7.67;6.37;;;1.60;99.90;;;;;;5015376;28;20883;-49
2021/01/13 02:37:44;;;;;;;9.67;6.97;;;1.60;99.90;;;;;;5015496;28;20415;-46
2021/01/13 02:40:21;;;;;;;7.73;6.10;;;1.50;99.90;;;;;;5028735;28;20442;-46
2021/01/13 02:43:11;;;;;;;6.97;6.20;;;1.40;99.90;;;;;;5037252;28;20417;-48
2021/01/13 02:45:43;;;;;;;7.50;6.20;;;1.40;99.90;;;;;;5035078;28;20464;-47
2021/01/13 02:48:09;;;;;;;7.73;6.10;;;1.30;99.90;;;;;;5037003;28;20997;-51
2021/01/13 02:50:43;;;;;;;7.00;5.93;;;1.30;99.90;;;;;;5037035;28;20437;-49
2021/01/13 02:53:09;;;;;;;8.33;6.10;;;1.40;99.90;;;;;;5036620;28;20403;-47
2021/01/13 02:56:02;;;;;;;7.73;6.90;;;1.40;99.90;;;;;;5034441;28;20414;-46
2021/01/13 02:58:37;;;;;;;8.93;6.57;;;1.50;99.90;;;;;;5026094;28;20235;-46
2021/01/13 03:01:06;;;;;;;9.13;6.57;;;1.60;99.90;;;;;;5034353;28;20410;-46
2021/01/13 03:03:33;;;;;;;7.17;6.07;;;1.60;99.90;;;;;;5032519;28;20453;-46
2021/01/13 03:06:09;;;;;;;7.70;6.30;;;1.60;99.90;;;;;;5034837;28;20418;-47
2021/01/13 03:09:04;;;;;;;8.67;6.57;;;1.60;99.90;;;;;;5014322;28;20443;-48
2021/01/13 03:11:30;;;;;;;7.03;5.93;;;1.60;99.90;;;;;;4944053;29;20606;-46
2021/01/13 03:14:08;;;;;;;8.47;6.40;;;1.50;99.90;;;;;;4953450;29;20415;-45
2021/01/13 03:16:39;;;;;;;7.77;6.57;;;1.50;99.90;;;;;;4939527;29;20426;-49
2021/01/13 03:19:15;;;;;;;8.37;6.87;;;1.50;99.90;;;;;;4955385;29;20451;-47
2021/01/13 03:21:50;;;;;;;8.60;6.97;;;1.50;99.90;;;;;;4954383;29;20464;-46
2021/01/13 03:24:20;;;;;;;8.33;6.77;;;1.40;99.90;;;;;;4955533;29;20500;-49
2021/01/13 03:26:48;;;;;;;9.67;7.87;;;1.30;99.90;;;;;;4954761;29;20545;-45
2021/01/13 03:29:22;;;;;;;9.13;6.97;;;1.40;99.90;;;;;;4936365;29;20881;-50
2021/01/13 03:31:54;;;;;;;9.90;7.17;;;1.50;99.90;;;;;;4952602;29;20433;-47
2021/01/13 03:34:27;;;;;;;9.13;7.20;;;1.60;99.90;;;;;;4954154;29;20457;-48
2021/01/13 03:37:07;;;;;;;10.67;7.10;;;1.60;99.90;;;;;;4953983;29;20418;-48
2021/01/13 03:39:39;;;;;;;7.77;6.20;;;1.60;99.90;;;;;;4955760;29;20202;-49
2021/01/13 03:42:11;;;;;;;10.77;6.77;;;1.70;99.90;;;;;;4956458;29;20494;-50
2021/01/13 03:44:40;;;;;;;9.00;6.80;;;1.70;99.90;;;;;;4955371;29;20955;-54
2021/01/13 03:47:24;;;;;;;7.97;6.47;;;1.70;99.90;;;;;;4970023;28;20418;-46
2021/01/13 03:50:14;;;;;;;7.80;6.60;;;1.70;99.90;;;;;;5035273;28;20426;-51
2021/01/13 03:52:48;;;;;;;9.33;6.97;;;1.70;99.90;;;;;;5034562;28;20497;-46
2021/01/13 03:55:15;;;;;;;8.97;6.97;;;1.60;99.90;;;;;;5035188;28;20882;-49
2021/01/13 03:57:47;;;;;;;8.50;7.10;;;1.50;99.90;;;;;;5034226;28;20898;-46
2021/01/13 04:00:14;;;;;;;9.00;6.93;;;1.40;99.90;;;;;;5034520;28;20410;-49
2021/01/13 04:02:55;;;;;;;8.90;6.20;;;1.30;99.90;;;;;;5034364;28;20491;-48
2021/01/13 04:05:30;;;;;;;8.70;6.83;;;1.30;99.90;;;;;;5034516;28;20457;-47
2021/01/13 04:07:57;;;;;;;9.73;6.20;;;1.30;99.90;;;;;;5034078;28;20748;-49
2021/01/13 04:10:23;;;;;;;7.13;6.23;;;1.40;99.90;;;;;;5034554;28;20560;-46
2021/01/13 04:13:24;;;;;;;8.03;6.20;;;1.40;99.90;;;;;;5034698;28;20899;-49
2021/01/13 04:15:51;;;;;;;8.13;6.07;;;1.40;99.90;;;;;;5038252;28;21002;-50
2021/01/13 04:18:18;;;;;;;8.50;6.73;;;1.40;99.90;;;;;;5035251;28;20469;-51
2021/01/13 04:20:44;;;;;;;8.03;6.37;;;1.50;99.90;;;;;;5036099;28;20417;-46
2021/01/13 04:23:10;;;;;;;7.93;5.90;;;1.50;99.90;;;;;;5037861;28;20443;-50
2021/01/13 04:25:36;;;;;;;8.20;5.90;;;1.40;99.90;;;;;;5036948;28;20219;-49
2021/01/13 04:28:02;;;;;;;7.17;6.00;;;1.40;99.90;;;;;;5037618;28;20192;-49
2021/01/13 04:30:28;;;;;;;7.73;5.90;;;1.30;99.90;;;;;;5038176;28;20263;-45
2021/01/13 04:32:55;;;;;;;6.87;5.80;;;1.30;99.90;;;;;;5037517;28;20421;-49
2021/01/13 04:35:21;;;;;;;7.10;5.70;;;1.30;99.90;;;;;;5035173;28;20442;-53
2021/01/13 04:37:51;;;;;;;9.10;6.30;;;1.40;99.90;;;;;;5038746;28;20521;-47
2021/01/13 04:40:33;;;;;;;8.97;5.83;;;1.50;99.90;;;;;;5016879;28;20403;-46
2021/01/13 04:43:07;;;;;;;8.13;5.57;;;1.50;99.90;;;;;;5026046;28;20422;-47
2021/01/13 04:45:39;;;;;;;6.63;5.40;;;1.70;99.90;;;;;;5038022;28;20454;-47
2021/01/13 04:48:07;;;;;;;6.67;5.63;;;1.70;99.90;;;;;;5039069;28;20483;-50
2021/01/13 04:50:36;;;;;;;7.70;5.10;;;1.90;99.90;;;;;;5039189;28;20418;-49
2021/01/13 04:53:08;;;;;;;6.67;5.33;;;2.00;99.90;;;;;;5036634;28;20476;-45
2021/01/13 04:55:42;;;;;;;7.17;5.40;;;2.00;99.90;;;;;;5036871;28;20407;-46
2021/01/13 04:58:45;;;;;;;6.50;5.53;;;1.90;99.90;;;;;;5037511;28;20801;-48
2021/01/13 05:01:29;;;;;;;7.10;5.27;;;2.00;99.90;;;;;;5036792;28;21028;-46
2021/01/13 05:04:13;;;;;;;7.33;5.27;;;1.90;99.90;;;;;;5037854;28;20516;-47
2021/01/13 05:06:39;;;;;;;8.80;5.60;;;2.00;99.90;;;;;;5036972;28;20422;-51
2021/01/13 05:09:09;;;;;;;7.37;4.93;;;2.00;99.90;;;;;;5037011;28;20434;-50
2021/01/13 05:11:43;;;;;;;10.07;5.80;;;2.10;99.90;;;;;;5038327;28;20179;-46
2021/01/13 05:14:10;;;;;;;7.63;4.93;;;2.20;99.90;;;;;;5037640;28;20444;-45
2021/01/13 05:16:56;;;;;;;7.33;4.87;;;2.20;99.90;;;;;;5036542;28;20501;-48
2021/01/13 05:19:59;;;;;;;5.93;5.03;;;2.30;99.90;;;;;;5019771;28;20434;-47
2021/01/13 05:22:25;;;;;;;7.63;5.30;;;2.20;99.90;;;;;;5037573;28;20754;-53
2021/01/13 05:24:53;;;;;;;6.50;4.97;;;2.30;99.90;;;;;;5036551;28;21000;-49
2021/01/13 05:27:56;;;;;;;6.77;5.50;;;2.30;99.90;;;;;;5037216;28;20199;-46
2021/01/13 05:30:25;;;;;;;6.60;4.90;;;2.40;99.90;;;;;;5026473;28;20418;-46
2021/01/13 05:32:55;;;;;;;8.27;5.70;;;2.40;99.90;;;;;;5036510;28;20415;-47
2021/01/13 05:35:28;;;;;;;7.43;5.10;;;2.30;99.90;;;;;;5036278;28;20517;-46
2021/01/13 05:38:11;;;;;;;7.03;5.23;;;2.30;99.90;;;;;;5036601;28;20417;-52
2021/01/13 05:40:52;;;;;;;5.73;5.07;;;2.40;99.90;;;;;;5037145;28;20406;-46
2021/01/13 05:43:19;;;;;;;7.80;5.23;;;2.30;99.90;;;;;;5033325;28;20414;-47
2021/01/13 05:45:45;;;;;;;10.60;5.97;;;2.30;99.90;;;;;;5035712;28;20455;-49
2021/01/13 05:48:22;;;;;;;8.33;5.47;;;2.30;99.90;;;;;;5035735;28;20430;-46
2021/01/13 05:50:51;;;;;;;7.27;5.27;;;2.30;99.90;;;;;;5020085;28;20402;-50
2021/01/13 05:53:17;;;;;;;6.53;5.23;;;2.20;99.90;;;;;;5033067;28;20414;-50
2021/01/13 05:55:47;;;;;;;7.77;5.80;;;2.00;99.90;;;;;;5035924;28;20414;-48
2021/01/13 05:58:13;;;;;;;6.50;5.30;;;2.00;99.90;;;;;;5036856;28;20581;-53
2021/01/13 06:00:39;;;;;;;7.87;5.30;;;2.00;99.90;;;;;;5033770;28;21013;-47
2021/01/13 06:03:05;;;;;;;10.30;6.20;;;2.10;99.90;;;;;;5036009;28;20199;-46
2021/01/13 06:05:33;;;;;;;8.13;5.50;;;2.00;99.90;;;;;;5035860;28;20527;-46
2021/01/13 06:08:03;;;;;;;7.87;5.50;;;1.90;99.90;;;;;;5037630;28;20489;-49
2021/01/13 06:10:34;;;;;;;7.57;5.53;;;1.90;99.90;;;;;;5035538;28;20454;-47
2021/01/13 06:13:02;;;;;;;7.40;5.57;;;1.80;99.90;;;;;;5035772;28;20485;-51
2021/01/13 06:15:28;;;;;;;7.87;6.00;;;1.90;99.90;;;;;;5035414;28;20426;-48
2021/01/13 06:17:57;;;;;;;8.77;5.90;;;1.90;99.90;;;;;;5030882;28;20824;-46
2021/01/13 06:20:24;;;;;;;10.60;6.40;;;2.00;99.90;;;;;;5036025;28;20398;-50
2021/01/13 06:22:51;;;;;;;9.13;6.17;;;2.10;99.90;;;;;;5034429;28;20419;-46
2021/01/13 06:25:23;;;;;;;9.73;6.20;;;2.20;99.90;;;;;;5028809;28;20876;-47
2021/01/13 06:27:57;;;;;;;8.37;6.20;;;2.30;99.90;;;;;;5024974;28;20443;-50
2021/01/13 06:30:28;;;;;;;10.93;6.70;;;2.10;99.90;;;;;;5016700;28;20419;-50
2021/01/13 06:33:08;;;;;;;9.63;6.20;;;2.10;99.90;;;;;;5016518;28;20548;-52
2021/01/13 06:35:42;;;;;;;9.40;6.40;;;2.10;99.90;;;;;;5014547;28;20403;-47
2021/01/13 06:38:29;;;;;;;10.10;7.53;;;3.00;99.90;;;;;;5015235;28;20474;-47
2021/01/13 06:40:59;;;;;;;9.53;7.37;;;2.00;99.90;;;;;;5015680;28;20410;-46
2021/01/13 06:43:25;;;;;;;12.87;7.90;;;1.90;99.90;;;;;;5027820;28;20468;-48
2021/01/13 06:45:51;;;;;;;11.43;7.60;;;1.80;99.90;;;;;;5033766;28;20465;-51
2021/01/13 06:48:26;;;;;;;10.47;7.90;;;1.80;99.90;;;;;;5036483;28;20446;-54
2021/01/13 06:50:59;;;;;;;10.70;8.57;;;1.90;99.90;;;;;;5030891;28;20171;-48
2021/01/13 06:53:33;;;;;;;11.50;8.05;;;1.90;99.90;;;;;;5031653;28;20440;-45
2021/01/13 06:56:08;;;;;;;12.87;9.43;;;1.80;99.90;;;;;;5034551;28;20958;-46
2021/01/13 06:58:36;;;;;;;11.10;8.20;;;1.70;99.90;;;;;;5030988;28;20454;-47
2021/01/13 07:01:03;;;;;;;11.03;8.13;;;1.70;99.90;;;;;;5032084;28;20434;-47
2021/01/13 07:03:30;;;;;;;10.10;7.70;;;1.70;99.90;;;;;;5032514;28;20449;-48
2021/01/13 07:06:00;;;;;;;9.67;7.90;;;1.70;99.90;;;;;;5031786;28;20419;-48
2021/01/13 07:08:26;;;;;;;11.40;8.40;;;1.80;99.90;;;;;;5028219;28;20806;-50
2021/01/13 07:11:06;;;;;;;14.90;9.33;;;1.80;99.90;;;;;;5031012;28;20917;-48
2021/01/13 07:13:35;;;;;;;11.63;9.50;;;1.70;99.90;;;;;;5032388;28;20671;-51
2021/01/13 07:16:02;;;;;;;12.70;8.97;;;1.60;99.90;;;;;;5024729;28;20431;-47
2021/01/13 07:18:28;;;;;;;11.90;9.00;;;1.50;99.90;;;;;;5031420;28;20866;-50
2021/01/13 07:20:55;;;;;;;10.60;8.70;;;1.50;99.90;;;;;;5020462;28;20442;-46
2021/01/13 07:23:21;;;;;;;12.97;9.23;;;1.60;99.90;;;;;;5015723;28;20671;-47
2021/01/13 07:25:50;;;;;;;14.50;9.50;;;1.60;99.90;;;;;;5033029;28;20511;-46
2021/01/13 07:28:16;;;;;;;12.97;9.77;;;1.60;99.90;;;;;;5032696;28;20454;-46
2021/01/13 07:30:44;;;;;;;11.83;9.63;;;1.60;99.90;;;;;;5031045;28;20426;-47
2021/01/13 07:33:14;;;;;;;15.97;9.87;;;1.50;99.90;;;;;;5034093;28;20399;-47
2021/01/13 07:35:47;;;;;;;15.07;10.27;;;1.60;99.90;;;;;;5032774;28;20402;-45
2021/01/13 07:38:16;;;;;;;12.00;9.57;;;1.80;99.90;;;;;;5027328;28;20454;-45
2021/01/13 07:41:03;;;;;;;11.47;8.70;;;1.80;99.90;;;;;;5031528;28;20457;-48
2021/01/13 07:44:02;;;;;;;11.20;9.10;;;1.80;99.90;;;;;;5033118;28;20418;-50
2021/01/13 07:46:30;;;;;;;12.97;10.43;;;1.70;99.90;;;;;;5033007;28;20425;-49
2021/01/13 07:49:18;;;;;;;15.40;9.43;;;1.80;99.90;;;;;;5033871;28;20533;-51
2021/01/13 07:51:52;;;;;;;15.13;9.73;;;1.60;99.90;;;;;;5014402;28;20723;-48
2021/01/13 07:54:28;;;;;;;13.93;9.93;;;1.60;99.90;;;;;;5013492;28;20838;-48
2021/01/13 07:56:57;;;;;;;11.33;8.87;;;1.50;99.90;;;;;;5022629;28;20410;-48
2021/01/13 07:59:52;;;;;;;11.73;9.70;;;1.50;99.90;;;;;;5033160;28;20426;-48
2021/01/13 08:02:27;;;;;;;13.77;9.50;;;1.40;99.90;;;;;;5019342;28;20415;-50
2021/01/13 08:05:11;;;;;;;16.17;10.40;;;1.20;99.90;;;;;;5033160;28;20545;-53
2021/01/13 08:07:39;;;;;;;15.57;10.40;;;1.10;99.90;;;;;;5014894;28;20410;-51
2021/01/13 08:10:06;;;;;;;15.53;10.20;;;1.10;99.90;;;;;;5032159;28;20488;-48
2021/01/13 08:12:59;;;;;;;15.60;9.70;;;1.10;99.90;;;;;;5033155;28;20767;-50
2021/01/13 08:15:36;;;;;;;13.10;9.50;;;1.10;99.90;;;;;;5038306;28;20964;-49
2021/01/13 08:18:57;;;;;;;13.07;10.00;;;1.20;99.90;;;;;;5032715;28;20453;-48
2021/01/13 08:21:40;;;;;;;16.10;12.37;;;1.30;99.90;;;;;;5033298;28;20406;-49
2021/01/13 08:24:09;;;;;;;13.07;8.63;;;1.30;99.90;;;;;;5033000;28;20458;-46
2021/01/13 08:26:37;;;;;;;15.57;9.90;;;1.80;99.90;;;;;;5032912;28;20898;-47
2021/01/13 08:29:05;;;;;;;10.33;8.07;;;2.50;99.90;;;;;;5033055;28;20687;-47
2021/01/13 08:31:31;;;;;;;13.47;7.73;;;2.90;99.90;;;;;;5033399;28;20265;-51
2021/01/13 08:34:10;;;;;;;11.63;8.17;;;2.90;99.90;;;;;;5033591;28;20539;-47
2021/01/13 08:36:52;;;;;;;11.07;8.17;;;2.70;99.90;;;;;;5032126;28;20671;-46
2021/01/13 08:39:18;;;;;;;9.73;8.30;;;2.60;99.90;;;;;;5032356;28;20300;-48
2021/01/13 08:41:45;;;;;;;12.50;8.20;;;2.30;99.90;;;;;;5044992;28;20237;-47
2021/01/13 08:44:12;;;;;;;10.20;8.43;;;2.20;99.90;;;;;;5052622;28;20195;-49
2021/01/13 08:46:47;;;;;;;9.37;7.43;;;2.00;99.90;;;;;;5052526;28;20183;-47
2021/01/13 08:49:22;;;;;;;9.97;7.90;;;1.90;99.90;;;;;;5033649;28;20290;-47
2021/01/13 08:52:09;;;;;;;12.87;8.40;;;2.00;99.90;;;;;;5034094;28;20183;-53
2021/01/13 08:54:35;;;;;;;12.90;8.33;;;2.00;99.90;;;;;;5033293;28;20180;-47
2021/01/13 08:57:03;;;;;;;11.40;8.13;;;2.00;99.90;;;;;;5032992;28;20176;-52
2021/01/13 08:59:38;;;;;;;9.67;7.47;;;1.90;99.90;;;;;;5035761;28;20207;-51
2021/01/13 09:02:08;;;;;;;12.50;8.07;;;1.80;99.90;;;;;;5036614;28;20175;-48
2021/01/13 09:04:59;;;;;;;10.43;7.97;;;1.70;99.90;;;;;;5033983;28;20595;-48
2021/01/13 09:07:25;;;;;;;11.50;8.47;;;1.70;99.90;;;;;;5031844;28;20427;-48
2021/01/13 09:09:58;;;;;;;10.47;7.93;;;1.70;99.90;;;;;;5033788;28;20977;-49
2021/01/13 09:12:39;;;;;;;13.37;7.60;;;1.80;99.90;;;;;;5030384;28;20556;-50
2021/01/13 09:15:08;;;;;;;11.73;7.70;;;1.80;99.90;;;;;;5040431;28;20451;-48
2021/01/13 09:17:39;;;;;;;9.23;7.10;;;1.90;99.90;;;;;;5050178;28;20210;-53
2021/01/13 09:20:13;;;;;;;10.27;7.30;;;2.10;99.90;;;;;;5032774;28;20178;-50
2021/01/13 09:22:42;;;;;;;10.97;7.03;;;2.40;99.90;;;;;;5028852;28;20245;-50
2021/01/13 09:25:29;;;;;;;10.33;7.10;;;2.50;99.90;;;;;;5028782;28;20757;-48
2021/01/13 09:28:12;;;;;;;11.20;7.00;;;3.10;99.90;;;;;;5029617;28;20207;-55
2021/01/13 09:30:41;;;;;;;8.93;6.23;;;3.20;99.90;;;;;;5030938;28;20176;-49
2021/01/13 09:33:16;;;;;;;9.20;6.67;;;3.50;99.90;;;;;;5031232;28;20179;-48
2021/01/13 09:35:58;;;;;;;10.40;7.03;;;3.40;99.90;;;;;;5032313;28;20179;-50
2021/01/13 09:38:36;;;;;;;10.63;6.93;;;3.30;99.90;;;;;;5033402;28;20195;-49
2021/01/13 09:41:03;;;;;;;9.70;6.67;;;3.00;99.90;;;;;;5033989;28;20195;-52
2021/01/13 09:43:46;;;;;;;11.13;7.03;;;2.90;99.90;;;;;;5035031;28;20172;-48
2021/01/13 09:46:20;;;;;;;9.40;6.70;;;2.80;99.90;;;;;;5016492;28;20207;-49
2021/01/13 09:49:04;;;;;;;11.83;7.67;;;2.70;99.90;;;;;;5032264;28;20209;-49
2021/01/13 09:51:30;;;;;;;10.00;7.10;;;2.50;99.90;;;;;;5036690;28;20187;-48
2021/01/13 09:53:58;;;;;;;10.13;6.97;;;2.30;99.90;;;;;;5034701;28;20176;-48
2021/01/13 09:56:27;;;;;;;10.53;6.50;;;2.00;99.90;;;;;;5033489;28;20184;-48
2021/01/13 09:58:53;;;;;;;10.63;7.30;;;2.00;99.90;;;;;;5035617;28;20203;-48
2021/01/13 10:01:27;;;;;;;9.53;6.97;;;2.00;99.90;;;;;;5036044;28;20176;-49
2021/01/13 10:03:57;;;;;;;11.83;7.63;;;2.00;99.90;;;;;;5035152;28;20199;-48
2021/01/13 10:06:26;;;;;;;14.47;7.27;;;1.90;99.90;;;;;;5035598;28;20406;-48
2021/01/13 10:08:55;;;;;;;11.33;6.53;;;1.90;99.90;;;;;;5035632;28;20441;-46
2021/01/13 10:11:24;;;;;;;9.27;6.93;;;2.00;99.90;;;;;;5034619;28;20175;-46
2021/01/13 10:14:02;;;;;;;12.97;7.70;;;2.00;99.90;;;;;;5035319;28;20218;-49
2021/01/13 10:16:28;;;;;;;11.50;6.27;;;2.10;99.90;;;;;;5035269;28;20386;-51
2021/01/13 10:18:59;;;;;;;10.73;7.17;;;2.00;99.90;;;;;;5034309;28;20541;-47
2021/01/13 10:21:42;;;;;;;9.57;6.27;;;1.90;99.90;;;;;;5034347;28;20184;-48
2021/01/13 10:24:13;;;;;;;10.63;6.90;;;1.80;99.90;;;;;;5034893;28;20529;-47
2021/01/13 10:26:41;;;;;;;11.13;7.07;;;1.90;99.90;;;;;;5034834;28;20191;-48
2021/01/13 10:29:11;;;;;;;11.60;7.50;;;1.80;99.90;;;;;;5035446;28;20435;-50
2021/01/13 10:31:38;;;;;;;14.77;7.63;;;1.80;99.90;;;;;;5035516;28;20414;-46
2021/01/13 10:34:04;;;;;;;9.50;7.17;;;1.90;99.90;;;;;;5034956;28;20608;-49
2021/01/13 10:36:30;;;;;;;9.90;7.13;;;1.90;99.90;;;;;;5035017;28;20810;-51
2021/01/13 10:38:57;;;;;;;12.17;7.43;;;1.90;99.90;;;;;;5034877;28;20651;-46
2021/01/13 10:41:30;;;;;;;14.80;7.30;;;2.00;99.90;;;;;;5035394;28;20152;-50
2021/01/13 10:44:11;;;;;;;18.17;10.73;;;2.10;99.90;;;;;;5035511;28;20291;-49
2021/01/13 10:46:43;;;;;;;13.73;7.63;;;2.20;99.90;;;;;;5034941;28;20188;-49
2021/01/13 10:49:18;;;;;;;13.87;7.27;;;2.20;99.90;;;;;;5035416;28;20191;-48
2021/01/13 10:51:47;;;;;;;12.83;7.23;;;2.10;99.90;;;;;;5036469;28;20496;-47
2021/01/13 10:54:16;;;;;;;9.73;6.57;;;2.00;99.90;;;;;;5035028;28;20541;-48
2021/01/13 10:56:44;;;;;;;9.07;7.17;;;2.10;99.90;;;;;;5032255;28;20207;-47
2021/01/13 10:59:16;;;;;;;9.93;7.13;;;2.00;99.90;;;;;;5030374;28;20454;-52
2021/01/13 11:01:53;;;;;;;10.80;6.83;;;2.00;99.90;;;;;;5033487;28;20226;-48
2021/01/13 11:04:30;;;;;;;12.07;7.33;;;1.90;99.90;;;;;;5035540;28;20215;-48
2021/01/13 11:06:57;;;;;;;10.37;7.50;;;1.80;99.90;;;;;;5034554;28;20415;-49
2021/01/13 11:09:24;;;;;;;10.27;6.43;;;1.70;99.90;;;;;;5034882;28;20457;-48
2021/01/13 11:11:50;;;;;;;13.53;7.67;;;1.80;99.90;;;;;;5034583;28;20186;-51
2021/01/13 11:14:27;;;;;;;9.57;7.10;;;1.80;99.90;;;;;;5035134;28;20426;-48
2021/01/13 11:17:14;;;;;;;11.53;7.57;;;1.80;99.90;;;;;;5034171;28;20214;-49
2021/01/13 11:19:42;;;;;;;10.50;7.37;;;1.80;99.90;;;;;;5035975;28;20957;-48
2021/01/13 11:22:08;;;;;;;12.63;6.60;;;1.80;99.90;;;;;;5034131;28;20998;-51
2021/01/13 11:24:36;;;;;;;11.53;7.03;;;1.80;99.90;;;;;;5035104;28;20521;-49
2021/01/13 11:27:05;;;;;;;10.50;6.97;;;1.80;99.90;;;;;;5033091;28;20184;-50
2021/01/13 11:29:33;;;;;;;11.63;6.73;;;1.90;99.90;;;;;;5033214;28;20199;-48
2021/01/13 11:32:00;;;;;;;9.63;6.10;;;1.80;99.90;;;;;;5032688;28;20422;-51
2021/01/13 11:34:27;;;;;;;12.33;6.50;;;1.70;99.90;;;;;;5015914;28;20415;-51
2021/01/13 11:37:22;;;;;;;12.63;6.47;;;1.60;99.90;;;;;;5034042;28;20505;-47
2021/01/13 11:40:06;;;;;;;11.07;6.43;;;1.70;99.90;;;;;;5034180;28;20434;-47
2021/01/13 11:43:09;;;;;;;13.00;6.30;;;1.80;99.90;;;;;;5031458;28;20488;-47
2021/01/13 11:45:45;;;;;;;10.77;5.70;;;1.80;99.90;;;;;;5014693;28;20454;-48
2021/01/13 11:48:14;;;;;;;11.63;6.37;;;1.80;99.90;;;;;;5015323;28;20533;-47
2021/01/13 11:50:46;;;;;;;9.33;6.53;;;1.80;99.90;;;;;;5014035;28;20407;-47
2021/01/13 11:53:22;;;;;;;9.93;5.70;;;1.80;99.90;;;;;;5014958;28;20410;-48
2021/01/13 11:55:48;;;;;;;10.40;5.50;;;1.80;99.90;;;;;;5015326;28;20399;-48
2021/01/13 11:58:16;;;;;;;8.47;5.40;;;1.80;99.90;;;;;;5015633;28;20464;-47
2021/01/13 12:00:42;;;;;;;10.03;6.33;;;1.80;99.90;;;;;;5014263;28;20506;-54
2021/01/13 12:03:16;;;;;;;10.63;5.73;;;1.90;99.90;;;;;;5014433;28;20459;-50
2021/01/13 12:05:42;;;;;;;11.60;5.80;;;1.60;99.90;;;;;;5015774;28;20600;-49
2021/01/13 12:08:18;;;;;;;8.17;5.43;;;1.80;99.90;;;;;;5021937;28;20938;-48
2021/01/13 12:10:53;;;;;;;9.93;5.60;;;1.80;99.90;;;;;;5034112;28;20217;-48
2021/01/13 12:13:24;;;;;;;8.73;5.97;;;1.80;99.90;;;;;;5033845;28;20453;-49
2021/01/13 12:15:59;;;;;;;10.53;5.63;;;1.80;99.90;;;;;;5035120;28;20176;-48
2021/01/13 12:18:30;;;;;;;11.30;5.67;;;1.80;99.90;;;;;;5015898;28;20430;-46
2021/01/13 12:20:57;;;;;;;10.50;6.07;;;1.80;99.90;;;;;;5034723;28;20191;-47
2021/01/13 12:23:36;;;;;;;11.57;5.90;;;1.80;99.90;;;;;;5032369;28;20733;-51
2021/01/13 12:26:29;;;;;;;7.53;5.23;;;1.80;99.90;;;;;;5032760;28;20298;-49
2021/01/13 12:29:14;;;;;;;8.40;5.13;;;1.90;99.90;;;;;;5032312;28;20740;-48
2021/01/13 12:31:44;;;;;;;9.50;5.27;;;1.90;99.90;;;;;;5031208;28;20410;-47
2021/01/13 12:34:15;;;;;;;10.57;5.30;;;1.90;99.90;;;;;;5035449;28;20489;-50
2021/01/13 12:36:47;;;;;;;7.60;4.97;;;1.90;99.90;;;;;;5038099;28;20694;-46
2021/01/13 12:39:27;;;;;;;7.57;4.50;;;1.90;99.90;;;;;;5036165;28;20481;-48
2021/01/13 12:41:54;;;;;;;12.97;5.17;;;1.90;99.90;;;;;;5035008;28;20265;-47
2021/01/13 12:44:21;;;;;;;7.53;4.73;;;1.90;99.90;;;;;;5036995;28;20748;-47
2021/01/13 12:46:52;;;;;;;7.33;4.63;;;2.00;99.90;;;;;;5039061;28;20471;-50
2021/01/13 12:49:19;;;;;;;9.07;4.50;;;2.00;99.90;;;;;;5034003;28;20427;-50
2021/01/13 12:51:55;;;;;;;8.27;4.77;;;2.00;99.90;;;;;;5037532;28;20334;-54
2021/01/13 12:54:21;;;;;;;8.40;4.30;;;2.00;99.90;;;;;;5036253;28;20426;-49
2021/01/13 12:56:47;;;;;;;9.47;3.80;;;2.00;99.90;;;;;;5036567;28;20239;-49
2021/01/13 12:59:14;;;;;;;6.50;4.00;;;2.00;99.90;;;;;;5037618;28;20284;-51
2021/01/13 13:01:40;;;;;;;8.57;4.70;;;2.00;99.90;;;;;;5034872;28;20208;-50
2021/01/13 13:04:07;;;;;;;9.43;4.43;;;2.00;99.90;;;;;;5036969;28;20211;-48
2021/01/13 13:06:34;;;;;;;8.23;4.27;;;2.00;99.90;;;;;;5035977;28;20180;-46
2021/01/13 13:09:02;;;;;;;8.47;4.63;;;2.00;99.90;;;;;;5015824;28;20223;-49
2021/01/13 13:11:28;;;;;;;6.33;4.57;;;2.10;99.90;;;;;;5035800;28;20862;-55
2021/01/13 13:13:55;;;;;;;9.13;4.43;;;2.20;99.90;;;;;;5036751;28;20270;-49
2021/01/13 13:16:21;;;;;;;7.17;4.47;;;2.30;99.90;;;;;;5037597;28;20171;-52
2021/01/13 13:18:49;;;;;;;7.40;4.30;;;2.30;99.90;;;;;;5036113;28;20299;-52